createdAt,value
2018-07-24T03:01:00.895Z,4.00
2018-07-24T03:02:01.482Z,4.00
2018-07-24T03:03:01.660Z,0.00
2018-07-24T03:04:01.694Z,4.00
2018-07-24T03:05:02.336Z,4.00
2018-07-24T03:06:02.481Z,4.00
2018-07-24T03:07:02.636Z,4.00
2018-07-24T03:08:03.679Z,4.00
2018-07-24T03:09:03.400Z,12.00
2018-07-24T03:10:02.201Z,8.00
2018-07-24T03:11:00.152Z,8.00
2018-07-24T03:12:00.186Z,12.00
2018-07-24T03:13:00.214Z,12.00
2018-07-24T03:14:00.427Z,16.00
2018-07-24T03:15:00.525Z,20.00
2018-07-24T03:16:02.751Z,24.00
2018-07-24T03:17:01.771Z,24.00
2018-07-24T03:18:03.281Z,32.00
2018-07-24T03:19:01.401Z,32.00
2018-07-24T03:20:01.704Z,40.00
2018-07-24T03:26:36.338Z,84.00
2018-07-24T03:28:47.186Z,108.00
2018-07-24T03:29:58.809Z,120.00
2018-07-24T03:30:38.679Z,132.00
2018-07-24T03:31:41.439Z,148.00
2018-07-24T03:32:45.276Z,160.00
2018-07-24T03:33:38.824Z,176.00
2018-07-24T03:34:38.954Z,192.00
2018-07-24T03:35:38.003Z,208.00
2018-07-24T03:36:51.978Z,228.00
2018-07-24T03:37:36.260Z,248.00
2018-07-24T03:38:36.081Z,264.00
2018-07-24T03:39:36.808Z,288.00
2018-07-24T03:40:36.440Z,308.00
2018-07-24T03:41:36.391Z,328.00
2018-07-24T03:42:36.623Z,352.00
2018-07-24T03:43:38.180Z,376.00
2018-07-24T03:44:36.616Z,400.00
2018-07-24T03:45:36.820Z,428.00
2018-07-24T03:46:51.675Z,448.00
2018-07-24T03:47:42.512Z,476.00
2018-07-24T03:48:39.922Z,500.00
2018-07-24T03:49:40.036Z,528.00
2018-07-24T03:50:39.005Z,556.00
2018-07-24T03:51:37.869Z,584.00
2018-07-24T03:52:38.064Z,612.00
2018-07-24T03:53:38.279Z,640.00
2018-07-24T03:54:38.365Z,668.00
2018-07-24T03:55:38.477Z,696.00
2018-07-24T03:56:38.657Z,724.00
2018-07-24T03:57:38.921Z,756.00
2018-07-24T03:58:39.176Z,784.00
2018-07-24T03:59:39.315Z,812.00
2018-07-24T04:00:39.434Z,844.00
2018-07-24T04:01:39.589Z,872.00
2018-07-24T04:02:39.804Z,900.00
2018-07-24T04:03:40.078Z,932.00
2018-07-24T04:04:40.167Z,960.00
2018-07-24T04:05:40.452Z,992.00
2018-07-24T04:06:40.511Z,1016.00
2018-07-24T04:07:40.821Z,1052.00
2018-07-24T04:08:40.920Z,1080.00
2018-07-24T04:09:41.101Z,1104.00
2018-07-24T04:10:42.076Z,1132.00
2018-07-24T04:11:41.333Z,1160.00
2018-07-24T04:12:41.685Z,1188.00
2018-07-24T04:13:41.633Z,1216.00
2018-07-24T04:14:41.981Z,1244.00
2018-07-24T04:15:42.483Z,1268.00
2018-07-24T04:16:42.361Z,1296.00
2018-07-24T04:17:42.545Z,1320.00
2018-07-24T04:18:42.932Z,1348.00
2018-07-24T04:19:43.036Z,1372.00
2018-07-24T04:20:43.015Z,1396.00
2018-07-24T04:21:43.383Z,1424.00
2018-07-24T04:22:43.358Z,1448.00
2018-07-24T04:23:43.747Z,1472.00
2018-07-24T04:24:43.922Z,1496.00
2018-07-24T04:25:44.006Z,1524.00
2018-07-24T04:26:44.095Z,1548.00
2018-07-24T04:27:44.268Z,1568.00
2018-07-24T04:28:44.532Z,1592.00
2018-07-24T04:29:44.694Z,1612.00
2018-07-24T04:30:44.997Z,1640.00
2018-07-24T04:31:44.990Z,1660.00
2018-07-24T04:32:45.287Z,1684.00
2018-07-24T04:33:45.375Z,1708.00
2018-07-24T04:34:45.616Z,1728.00
2018-07-24T04:35:45.765Z,1748.00
2018-07-24T04:36:45.890Z,1772.00
2018-07-24T04:37:46.121Z,1788.00
2018-07-24T04:38:46.300Z,1808.00
2018-07-24T04:39:46.605Z,1828.00
2018-07-24T04:40:46.709Z,1848.00
2018-07-24T04:41:46.862Z,1868.00
2018-07-24T04:42:47.151Z,1884.00
2018-07-24T04:43:47.166Z,1900.00
2018-07-24T04:44:47.298Z,1924.00
2018-07-24T04:45:47.520Z,1944.00
2018-07-24T04:46:47.739Z,1960.00
2018-07-24T04:47:47.791Z,1976.00
2018-07-24T04:48:48.053Z,2000.00
2018-07-24T04:49:48.321Z,2012.00
2018-07-24T04:50:48.303Z,2032.00
2018-07-24T04:51:48.465Z,2048.00
2018-07-24T04:52:48.720Z,2068.00
2018-07-24T04:53:48.909Z,2084.00
2018-07-24T04:54:49.102Z,2096.00
2018-07-24T04:55:49.239Z,2116.00
2018-07-24T04:56:49.335Z,2132.00
2018-07-24T04:57:49.597Z,2148.00
2018-07-24T04:58:49.800Z,2164.00
2018-07-24T04:59:49.954Z,2176.00
2018-07-24T05:00:50.174Z,2192.00
2018-07-24T05:01:50.276Z,2208.00
2018-07-24T05:02:50.442Z,2220.00
2018-07-24T05:03:50.830Z,2236.00
2018-07-24T05:04:50.981Z,2248.00
2018-07-24T05:05:51.110Z,2264.00
2018-07-24T05:06:51.183Z,2276.00
2018-07-24T05:07:51.415Z,2288.00
2018-07-24T05:08:51.619Z,2304.00
2018-07-24T05:09:51.756Z,2316.00
2018-07-24T05:10:51.904Z,2332.00
2018-07-24T05:11:52.095Z,2344.00
2018-07-24T05:12:52.308Z,2360.00
2018-07-24T05:13:52.504Z,2372.00
2018-07-24T05:14:52.656Z,2392.00
2018-07-24T05:15:52.912Z,2408.00
2018-07-24T05:16:52.959Z,2424.00
2018-07-24T05:17:53.175Z,2444.00
2018-07-24T05:18:53.417Z,2464.00
2018-07-24T05:19:53.628Z,2456.00
2018-07-24T05:20:53.735Z,2516.00
2018-07-24T05:21:53.977Z,2544.00
2018-07-24T05:22:54.038Z,2576.00
2018-07-24T05:23:54.237Z,2608.00
2018-07-24T05:24:54.350Z,2636.00
2018-07-24T05:25:54.524Z,2664.00
2018-07-24T05:26:56.378Z,2692.00
2018-07-24T05:27:55.416Z,2728.00
2018-07-24T05:28:55.255Z,2756.00
2018-07-24T05:29:55.550Z,2800.00
2018-07-24T05:30:55.799Z,2840.00
2018-07-24T05:35:43.231Z,2980.00
2018-07-24T05:36:42.271Z,3004.00
2018-07-24T05:37:41.597Z,3024.00
2018-07-24T05:38:42.075Z,3044.00
2018-07-24T05:39:43.107Z,3064.00
2018-07-24T05:41:42.735Z,3104.00
2018-07-24T05:43:44.475Z,3136.00
2018-07-24T05:44:45.618Z,3152.00
2018-07-24T05:45:45.064Z,3176.00
2018-07-24T05:46:44.069Z,3196.00
2018-07-24T05:47:43.540Z,3216.00
2018-07-24T05:48:42.338Z,3236.00
2018-07-24T05:49:41.926Z,3256.00
2018-07-24T05:50:41.826Z,3280.00
2018-07-24T05:51:41.750Z,3300.00
2018-07-24T05:52:41.982Z,3320.00
2018-07-24T05:53:42.258Z,3336.00
2018-07-24T05:54:42.328Z,3352.00
2018-07-24T05:55:42.513Z,3376.00
2018-07-24T05:56:42.693Z,3400.00
2018-07-24T05:57:42.818Z,3412.00
2018-07-24T05:58:42.799Z,3432.00
2018-07-24T05:59:43.144Z,3456.00
2018-07-24T06:00:44.068Z,3480.00
2018-07-24T06:01:43.390Z,3504.00
2018-07-24T06:02:43.644Z,3520.00
2018-07-24T06:03:43.896Z,3544.00
2018-07-24T06:04:43.893Z,3564.00
2018-07-24T06:05:44.459Z,3584.00
2018-07-24T06:06:44.444Z,3600.00
2018-07-24T06:07:45.253Z,3612.00
2018-07-24T06:08:44.606Z,3620.00
2018-07-24T06:09:45.206Z,3636.00
2018-07-24T06:10:44.888Z,3648.00
2018-07-24T06:11:45.107Z,3664.00
2018-07-24T06:12:45.229Z,3680.00
2018-07-24T06:13:45.427Z,3704.00
2018-07-24T06:14:45.632Z,3716.00
2018-07-24T06:15:45.873Z,3740.00
2018-07-24T06:16:45.954Z,3756.00
2018-07-24T06:17:45.950Z,3784.00
2018-07-24T06:18:46.341Z,3812.00
2018-07-24T06:19:46.453Z,3832.00
2018-07-24T06:20:46.914Z,3856.00
2018-07-24T06:21:46.780Z,3884.00
2018-07-24T06:23:03.312Z,3904.00
2018-07-24T06:28:07.611Z,4004.00
2018-07-24T06:29:07.875Z,4016.00
2018-07-24T06:30:08.526Z,4040.00
2018-07-24T06:31:08.385Z,4056.00
2018-07-24T06:32:05.782Z,4076.00
2018-07-24T06:33:05.865Z,4092.00
2018-07-24T06:34:06.005Z,4112.00
2018-07-24T06:35:06.239Z,4136.00
2018-07-24T06:36:06.441Z,4152.00
2018-07-24T06:37:06.535Z,4168.00
2018-07-24T06:38:06.775Z,4188.00
2018-07-24T06:39:06.873Z,4204.00
2018-07-24T06:40:07.084Z,4220.00
2018-07-24T06:41:07.199Z,4240.00
2018-07-24T06:42:07.507Z,4260.00
2018-07-24T06:43:07.590Z,4276.00
2018-07-24T06:44:07.827Z,4292.00
2018-07-24T06:45:08.049Z,4308.00
2018-07-24T06:46:08.138Z,4328.00
2018-07-24T06:47:08.403Z,4344.00
2018-07-24T06:48:08.484Z,4364.00
2018-07-24T06:49:08.755Z,4376.00
2018-07-24T06:50:08.918Z,4392.00
2018-07-24T06:51:09.069Z,4404.00
2018-07-24T06:52:09.268Z,4416.00
2018-07-24T06:53:09.450Z,4436.00
2018-07-24T06:54:09.586Z,4448.00
2018-07-24T06:55:09.775Z,4464.00
2018-07-24T06:56:09.911Z,4484.00
2018-07-24T06:57:10.111Z,4508.00
2018-07-24T06:58:10.320Z,4528.00
2018-07-24T06:59:10.418Z,4548.00
2018-07-24T07:00:10.654Z,4572.00
2018-07-24T07:01:10.853Z,4592.00
2018-07-24T07:02:11.137Z,4612.00
2018-07-24T07:03:11.144Z,4628.00
2018-07-24T07:04:11.386Z,4648.00
2018-07-24T07:05:11.649Z,4672.00
2018-07-24T07:06:11.768Z,4696.00
2018-07-24T07:07:11.921Z,4708.00
2018-07-24T07:08:12.232Z,4728.00
2018-07-24T07:09:12.233Z,4744.00
2018-07-24T07:10:12.407Z,4760.00
2018-07-24T07:11:12.592Z,4780.00
2018-07-24T07:12:12.670Z,4796.00
2018-07-24T07:13:12.902Z,4816.00
2018-07-24T07:14:12.965Z,4832.00
2018-07-24T07:15:13.202Z,4844.00
2018-07-24T07:16:13.339Z,4856.00
2018-07-24T07:17:13.535Z,4876.00
2018-07-24T07:18:13.685Z,4888.00
2018-07-24T07:19:13.846Z,4900.00
2018-07-24T07:20:14.101Z,4916.00
2018-07-24T07:21:14.222Z,4932.00
2018-07-24T07:22:15.463Z,4952.00
2018-07-24T07:23:14.514Z,4976.00
2018-07-24T07:24:14.696Z,5000.00
2018-07-24T07:25:14.884Z,5028.00
2018-07-24T07:26:15.014Z,5044.00
2018-07-24T07:27:15.161Z,5064.00
2018-07-24T07:28:15.477Z,5088.00
2018-07-24T07:29:15.678Z,5112.00
2018-07-24T07:30:15.746Z,5132.00
2018-07-24T07:31:15.953Z,5152.00
2018-07-24T07:32:16.122Z,5172.00
2018-07-24T07:33:16.562Z,5192.00
2018-07-24T07:34:16.498Z,5212.00
2018-07-24T07:35:16.583Z,5228.00
2018-07-24T07:36:16.894Z,5248.00
2018-07-24T07:37:17.023Z,5268.00
2018-07-24T07:38:17.357Z,5292.00
2018-07-24T07:39:17.510Z,5312.00
2018-07-24T07:40:17.729Z,5328.00
2018-07-24T07:41:17.775Z,5352.00
2018-07-24T07:42:18.050Z,5364.00
2018-07-24T07:43:18.250Z,5384.00
2018-07-24T07:44:18.264Z,5408.00
2018-07-24T07:45:18.567Z,5428.00
2018-07-24T07:46:18.656Z,5448.00
2018-07-24T07:47:19.014Z,5464.00
2018-07-24T07:48:19.082Z,5484.00
2018-07-24T07:49:19.218Z,5508.00
2018-07-24T07:50:19.537Z,5528.00
2018-07-24T07:51:20.010Z,5548.00
2018-07-24T07:52:20.249Z,5568.00
2018-07-24T07:53:19.947Z,5588.00
2018-07-24T07:54:20.117Z,5616.00
2018-07-24T07:55:20.327Z,5640.00
2018-07-24T07:56:20.399Z,5652.00
2018-07-24T07:57:20.641Z,5672.00
2018-07-24T07:58:20.820Z,5684.00
2018-07-24T07:59:21.064Z,5704.00
2018-07-24T08:00:21.043Z,5720.00
2018-07-24T08:01:21.412Z,5736.00
2018-07-24T08:02:21.713Z,5748.00
2018-07-24T08:03:21.639Z,5772.00
2018-07-24T08:04:21.640Z,5796.00
2018-07-24T08:05:21.886Z,5812.00
2018-07-24T08:06:22.006Z,5828.00
2018-07-24T08:07:22.102Z,5848.00
2018-07-24T08:08:22.401Z,5932.00
2018-07-24T08:09:22.444Z,6120.00
2018-07-24T08:10:22.741Z,6296.00
2018-07-24T08:11:22.870Z,6380.00
2018-07-24T08:12:23.010Z,6448.00
2018-07-24T08:13:23.288Z,6512.00
2018-07-24T08:14:23.340Z,6568.00
2018-07-24T08:15:23.627Z,6632.00
2018-07-24T08:16:23.845Z,6704.00
2018-07-24T08:17:24.048Z,6756.00
2018-07-24T08:18:24.204Z,6828.00
2018-07-24T08:19:24.296Z,6912.00
2018-07-24T08:20:24.460Z,6988.00
2018-07-24T08:21:24.649Z,7040.00
2018-07-24T08:22:24.746Z,7080.00
2018-07-24T08:23:24.987Z,7104.00
2018-07-24T08:24:25.310Z,7152.00
2018-07-24T08:25:25.385Z,7252.00
2018-07-24T08:26:25.488Z,7312.00
2018-07-24T08:27:25.678Z,7356.00
2018-07-24T08:28:25.860Z,7420.00
2018-07-24T08:29:26.060Z,7456.00
2018-07-24T08:30:26.398Z,7512.00
2018-07-24T08:31:26.529Z,7548.00
2018-07-24T08:32:26.602Z,7580.00
2018-07-24T08:33:26.824Z,7644.00
2018-07-24T08:34:27.026Z,7660.00
2018-07-24T08:35:27.299Z,7712.00
2018-07-24T08:36:27.289Z,7748.00
2018-07-24T08:37:27.606Z,7804.00
2018-07-24T08:38:27.861Z,7848.00
2018-07-24T08:39:27.774Z,7856.00
2018-07-24T08:40:28.083Z,7844.00
2018-07-24T08:41:28.311Z,7756.00
2018-07-24T08:42:28.390Z,7480.00
2018-07-24T08:43:28.577Z,7104.00
2018-07-24T08:44:28.659Z,6960.00
2018-07-24T08:45:28.909Z,6896.00
2018-07-24T08:46:29.081Z,6824.00
2018-07-24T08:47:29.375Z,6752.00
2018-07-24T08:48:29.376Z,6712.00
2018-07-24T08:49:29.660Z,6708.00
2018-07-24T08:50:29.842Z,6744.00
2018-07-24T08:51:30.027Z,6772.00
2018-07-24T08:52:30.161Z,6792.00
2018-07-24T08:53:30.616Z,6816.00
2018-07-24T08:54:30.556Z,6848.00
2018-07-24T08:55:31.097Z,6884.00
2018-07-24T08:56:30.847Z,6916.00
2018-07-24T08:57:31.162Z,6948.00
2018-07-24T08:58:31.324Z,6976.00
2018-07-24T08:59:31.447Z,7000.00
2018-07-24T09:00:31.664Z,7048.00
2018-07-24T09:01:31.781Z,7084.00
2018-07-24T09:02:31.964Z,7108.00
2018-07-24T09:03:32.299Z,7148.00
2018-07-24T09:04:32.386Z,7184.00
2018-07-24T09:05:32.523Z,7224.00
2018-07-24T09:06:32.635Z,7256.00
2018-07-24T09:07:32.850Z,7292.00
2018-07-24T09:08:33.083Z,7324.00
2018-07-24T09:09:33.183Z,7344.00
2018-07-24T09:10:33.418Z,7364.00
2018-07-24T09:11:33.506Z,7400.00
2018-07-24T09:12:33.789Z,7440.00
2018-07-24T09:13:33.927Z,7468.00
2018-07-24T09:14:34.157Z,7480.00
2018-07-24T09:15:34.381Z,7496.00
2018-07-24T09:16:34.429Z,7500.00
2018-07-24T09:17:34.601Z,7528.00
2018-07-24T09:18:34.800Z,7524.00
2018-07-24T09:19:35.019Z,7528.00
2018-07-24T09:20:35.150Z,7540.00
2018-07-24T09:21:35.235Z,7560.00
2018-07-24T09:22:35.436Z,7564.00
2018-07-24T09:23:35.723Z,7576.00
2018-07-24T09:24:35.871Z,7540.00
2018-07-24T09:25:36.042Z,7564.00
2018-07-24T09:26:36.191Z,7592.00
2018-07-24T09:27:36.311Z,7556.00
2018-07-24T09:28:36.476Z,7540.00
2018-07-24T09:29:36.681Z,7508.00
2018-07-24T09:30:36.904Z,7488.00
2018-07-24T09:31:37.104Z,7468.00
2018-07-24T09:32:37.255Z,7484.00
2018-07-24T09:33:37.415Z,7484.00
2018-07-24T09:34:37.603Z,7500.00
2018-07-24T09:35:37.760Z,7496.00
2018-07-24T09:36:37.955Z,7496.00
2018-07-24T09:37:38.066Z,7476.00
2018-07-24T09:38:38.202Z,7516.00
2018-07-24T09:39:38.393Z,7528.00
2018-07-24T09:40:38.525Z,7548.00
2018-07-24T09:41:38.720Z,7580.00
2018-07-24T09:42:38.965Z,7620.00
2018-07-24T09:43:39.070Z,7640.00
2018-07-24T09:44:39.276Z,7672.00
2018-07-24T09:45:39.515Z,7712.00
2018-07-24T09:46:39.597Z,7788.00
2018-07-24T09:47:39.698Z,7924.00
2018-07-24T09:48:40.067Z,8112.00
2018-07-24T09:49:40.081Z,10556.00
2018-07-24T09:50:40.389Z,15936.00
2018-07-24T09:51:40.517Z,22464.00
2018-07-24T09:52:40.666Z,25152.00
2018-07-24T09:53:40.857Z,24608.00
2018-07-24T09:54:40.985Z,24768.00
2018-07-24T09:55:41.997Z,26496.00
2018-07-24T09:56:41.340Z,29344.00
2018-07-24T09:57:41.476Z,26880.00
2018-07-24T09:58:41.647Z,22816.00
2018-07-24T09:59:41.796Z,20448.00
2018-07-24T10:00:42.017Z,21536.00
2018-07-24T10:01:42.806Z,26080.00
2018-07-24T10:02:42.486Z,28896.00
2018-07-24T10:03:42.577Z,31136.00
2018-07-24T10:04:42.816Z,31904.00
2018-07-24T10:05:42.901Z,31328.00
2018-07-24T10:06:43.062Z,31392.00
2018-07-24T10:07:43.361Z,32800.00
2018-07-24T10:08:43.448Z,33472.00
2018-07-24T10:09:43.666Z,33856.00
2018-07-24T10:10:43.817Z,35264.00
2018-07-24T10:11:44.057Z,34880.00
2018-07-24T10:12:44.221Z,33344.00
2018-07-24T10:13:44.323Z,32704.00
2018-07-24T10:14:44.574Z,34240.00
2018-07-24T10:15:44.748Z,36928.00
2018-07-24T10:16:45.020Z,38688.00
2018-07-24T10:17:45.120Z,39232.00
2018-07-24T10:18:45.335Z,39296.00
2018-07-24T10:19:45.383Z,38496.00
2018-07-24T10:20:45.663Z,38944.00
2018-07-24T10:21:45.804Z,38720.00
2018-07-24T10:22:45.951Z,38208.00
2018-07-24T10:23:46.115Z,38432.00
2018-07-24T10:24:46.273Z,39808.00
2018-07-24T10:25:46.460Z,40416.00
2018-07-24T10:26:46.631Z,39136.00
2018-07-24T10:27:46.804Z,37952.00
2018-07-24T10:28:47.051Z,36576.00
2018-07-24T10:29:47.242Z,36992.00
2018-07-24T10:30:47.380Z,37952.00
2018-07-24T10:31:47.543Z,41056.00
2018-07-24T10:32:47.734Z,43616.00
2018-07-24T10:33:47.967Z,45120.00
2018-07-24T10:34:48.065Z,45888.00
2018-07-24T10:35:48.273Z,45504.00
2018-07-24T10:36:48.622Z,44032.00
2018-07-24T10:37:48.645Z,44288.00
2018-07-24T10:38:48.977Z,44768.00
2018-07-24T10:39:49.060Z,45472.00
2018-07-24T10:40:49.254Z,46816.00
2018-07-24T10:41:49.538Z,47552.00
2018-07-24T10:42:49.573Z,47712.00
2018-07-24T10:43:49.855Z,48000.00
2018-07-24T10:44:50.016Z,48896.00
2018-07-24T10:45:50.176Z,49856.00
2018-07-24T10:46:50.496Z,51040.00
2018-07-24T10:47:50.509Z,51872.00
2018-07-24T10:48:50.831Z,50560.00
2018-07-24T10:49:50.961Z,48352.00
2018-07-24T10:50:51.251Z,49824.00
2018-07-24T10:51:51.357Z,50656.00
2018-07-24T10:52:51.566Z,51392.00
2018-07-24T10:53:51.802Z,51968.00
2018-07-24T10:54:51.975Z,53120.00
2018-07-24T10:55:52.318Z,54848.00
2018-07-24T10:56:52.491Z,53056.00
2018-07-24T10:57:52.564Z,49120.00
2018-07-24T10:58:53.041Z,47744.00
2018-07-24T10:59:52.987Z,46176.00
2018-07-24T11:00:53.188Z,46944.00
2018-07-24T11:01:53.495Z,50208.00
2018-07-24T11:02:53.561Z,51840.00
2018-07-24T11:03:53.701Z,52224.00
2018-07-24T11:04:54.029Z,53248.00
2018-07-24T11:05:54.157Z,55040.00
2018-07-24T11:06:54.335Z,56160.00
2018-07-24T11:07:54.450Z,56608.00
2018-07-24T11:08:54.630Z,58176.00
2018-07-24T11:09:55.092Z,59584.00
2018-07-24T11:11:55.517Z,59840.00
2018-07-24T11:12:55.562Z,60704.00
2018-07-24T11:13:55.902Z,61152.00
2018-07-24T11:14:55.900Z,60672.00
2018-07-24T11:15:56.120Z,61408.00
2018-07-24T11:16:56.393Z,62240.00
2018-07-24T11:17:56.553Z,61568.00
2018-07-24T11:18:56.665Z,60832.00
2018-07-24T11:19:56.743Z,62016.00
2018-07-24T11:20:57.155Z,61504.00
2018-07-24T11:21:57.197Z,61856.00
2018-07-24T11:22:57.582Z,62336.00
2018-07-24T11:23:57.655Z,60864.00
2018-07-24T11:24:57.796Z,59008.00
2018-07-24T11:25:57.981Z,59520.00
2018-07-24T11:26:58.253Z,60672.00
2018-07-24T11:27:58.447Z,60192.00
2018-07-24T11:30:03.391Z,60544.00
2018-07-24T11:31:01.202Z,64576.00
2018-07-24T11:33:40.763Z,58176.00
2018-07-24T11:35:02.297Z,61888.00
2018-07-24T11:35:38.532Z,61696.00
2018-07-24T11:37:38.401Z,62144.00
2018-07-24T11:38:35.906Z,61056.00
2018-07-24T11:39:36.124Z,59488.00
2018-07-24T11:40:35.800Z,61664.00
2018-07-24T11:41:33.796Z,66848.00
2018-07-24T11:42:33.796Z,68288.00
2018-07-24T11:43:33.966Z,64512.00
2018-07-24T11:44:34.082Z,62944.00
2018-07-24T11:45:34.217Z,64384.00
2018-07-24T11:46:34.673Z,64864.00
2018-07-24T11:47:34.731Z,65344.00
2018-07-24T11:48:34.856Z,64672.00
2018-07-24T11:49:35.207Z,63264.00
2018-07-24T11:50:35.203Z,65152.00
2018-07-24T11:51:35.520Z,70592.00
2018-07-24T11:52:35.559Z,70848.00
2018-07-24T11:53:49.289Z,64640.00
2018-07-24T11:54:42.245Z,62752.00
2018-07-24T11:55:50.796Z,65184.00
2018-07-24T11:56:47.246Z,63360.00
2018-07-24T11:57:40.517Z,61280.00
2018-07-24T11:58:39.458Z,64544.00
2018-07-24T11:59:37.103Z,64064.00
2018-07-24T12:00:37.152Z,59360.00
2018-07-24T12:01:37.524Z,58304.00
2018-07-24T12:02:37.692Z,62304.00
2018-07-24T12:03:37.961Z,65184.00
2018-07-24T12:04:38.141Z,66464.00
2018-07-24T12:05:38.206Z,64960.00
2018-07-24T12:06:38.440Z,63168.00
2018-07-24T12:07:38.689Z,61792.00
2018-07-24T12:08:38.755Z,62880.00
2018-07-24T12:09:39.001Z,62752.00
2018-07-24T12:10:39.172Z,63744.00
2018-07-24T12:11:39.468Z,67744.00
2018-07-24T12:12:39.642Z,68640.00
2018-07-24T12:13:39.785Z,67072.00
2018-07-24T12:14:40.165Z,68768.00
2018-07-24T12:15:40.309Z,71712.00
2018-07-24T12:16:40.367Z,72512.00
2018-07-24T12:17:40.496Z,69920.00
2018-07-24T12:18:40.765Z,66848.00
2018-07-24T12:29:07.162Z,67072.00
2018-07-24T12:31:28.626Z,70496.00
2018-07-24T12:32:51.549Z,69504.00
2018-07-24T12:33:51.390Z,66144.00
2018-07-24T12:34:49.509Z,63328.00
2018-07-24T12:35:49.514Z,64608.00
2018-07-24T12:36:49.682Z,66912.00
2018-07-24T12:37:49.933Z,67744.00
2018-07-24T12:38:50.034Z,64896.00
2018-07-24T12:39:49.931Z,64608.00
2018-07-24T12:40:50.219Z,68512.00
2018-07-24T12:41:50.663Z,70880.00
2018-07-24T12:42:50.739Z,69504.00
2018-07-24T12:43:50.715Z,67936.00
2018-07-24T12:44:50.901Z,68320.00
2018-07-24T12:45:51.138Z,72064.00
2018-07-24T12:46:51.442Z,71552.00
2018-07-24T12:47:51.521Z,65184.00
2018-07-24T12:48:51.777Z,58688.00
2018-07-24T12:49:51.916Z,58880.00
2018-07-24T12:50:52.244Z,64672.00
2018-07-24T12:51:52.276Z,71424.00
2018-07-24T12:52:52.584Z,70464.00
2018-07-24T12:53:52.680Z,69792.00
2018-07-24T12:54:52.882Z,72096.00
2018-07-24T12:55:53.204Z,72000.00
2018-07-24T12:56:53.250Z,69152.00
2018-07-24T12:57:53.611Z,69120.00
2018-07-24T12:58:53.901Z,70848.00
2018-07-24T12:59:54.045Z,71328.00
2018-07-24T13:00:54.266Z,72032.00
2018-07-24T13:01:54.438Z,70336.00
2018-07-24T13:02:54.921Z,69504.00
2018-07-24T13:03:55.012Z,67616.00
2018-07-24T13:04:56.149Z,65792.00
2018-07-24T13:05:55.204Z,65024.00
2018-07-24T13:06:58.922Z,69184.00
2018-07-24T13:07:56.175Z,75872.00
2018-07-24T13:08:56.025Z,73184.00
2018-07-24T13:09:56.150Z,60736.00
2018-07-24T13:10:56.225Z,56288.00
2018-07-24T13:11:56.304Z,62816.00
2018-07-24T13:12:58.174Z,63488.00
2018-07-24T13:13:56.781Z,59040.00
2018-07-24T13:14:56.999Z,62240.00
2018-07-24T13:15:57.239Z,72064.00
2018-07-24T13:16:57.408Z,73824.00
2018-07-24T13:17:57.515Z,66496.00
2018-07-24T13:18:57.842Z,67136.00
2018-07-24T13:19:57.864Z,74304.00
2018-07-24T13:20:58.215Z,72160.00
2018-07-24T13:21:58.461Z,69472.00
2018-07-24T13:22:59.118Z,71712.00
2018-07-24T13:23:58.791Z,75136.00
2018-07-24T13:24:59.144Z,73824.00
2018-07-24T13:25:59.209Z,70176.00
2018-07-24T13:26:59.429Z,69920.00
2018-07-24T13:27:59.554Z,75424.00
2018-07-24T13:28:59.672Z,78880.00
2018-07-24T13:29:59.933Z,75072.00
2018-07-24T13:31:00.020Z,70368.00
2018-07-24T13:32:00.194Z,70752.00
2018-07-24T13:33:00.483Z,72704.00
2018-07-24T13:34:00.679Z,72480.00
2018-07-24T13:35:00.795Z,68192.00
2018-07-24T13:36:01.090Z,64896.00
2018-07-24T13:37:01.193Z,67840.00
2018-07-24T13:38:01.364Z,71584.00
2018-07-24T13:39:01.613Z,71616.00
2018-07-24T13:40:01.744Z,71520.00
2018-07-24T13:41:02.044Z,68896.00
2018-07-24T13:42:02.167Z,62144.00
2018-07-24T13:43:02.377Z,58272.00
2018-07-24T13:44:02.517Z,59744.00
2018-07-24T13:45:02.785Z,63712.00
2018-07-24T13:46:02.881Z,67136.00
2018-07-24T13:47:03.095Z,68128.00
2018-07-24T13:48:03.313Z,69760.00
2018-07-24T13:49:03.455Z,70944.00
2018-07-24T13:50:03.828Z,71872.00
2018-07-24T13:51:03.926Z,71584.00
2018-07-24T13:52:04.003Z,71072.00
2018-07-24T13:53:04.218Z,66464.00
2018-07-24T13:54:04.434Z,60704.00
2018-07-24T13:55:04.635Z,62272.00
2018-07-24T13:56:04.872Z,65312.00
2018-07-24T13:57:05.007Z,66688.00
2018-07-24T13:58:05.305Z,69344.00
2018-07-24T13:59:05.350Z,71424.00
2018-07-24T14:00:05.607Z,70400.00
2018-07-24T14:01:05.794Z,68672.00
2018-07-24T14:02:05.927Z,68384.00
2018-07-24T14:03:06.088Z,68320.00
2018-07-24T14:04:06.464Z,67616.00
2018-07-24T14:05:06.555Z,65152.00
2018-07-24T14:06:06.791Z,60960.00
2018-07-24T14:07:07.028Z,59456.00
2018-07-24T14:08:07.189Z,64672.00
2018-07-24T14:09:07.420Z,68032.00
2018-07-24T14:10:07.463Z,66816.00
2018-07-24T14:11:07.861Z,63008.00
2018-07-24T14:12:07.973Z,63872.00
2018-07-24T14:13:08.067Z,66304.00
2018-07-24T14:14:08.291Z,69216.00
2018-07-24T14:15:08.373Z,74144.00
2018-07-24T14:16:08.637Z,75136.00
2018-07-24T14:17:08.803Z,69696.00
2018-07-24T14:18:09.166Z,61280.00
2018-07-24T14:19:09.230Z,55712.00
2018-07-24T14:20:09.629Z,57504.00
2018-07-24T14:21:09.655Z,62976.00
2018-07-24T14:22:09.771Z,64960.00
2018-07-24T14:23:09.880Z,64672.00
2018-07-24T14:24:10.121Z,62368.00
2018-07-24T14:25:10.299Z,64192.00
2018-07-24T14:26:10.601Z,68384.00
2018-07-24T14:27:10.673Z,72448.00
2018-07-24T14:28:10.859Z,73568.00
2018-07-24T14:29:11.002Z,69280.00
2018-07-24T14:30:11.314Z,65408.00
2018-07-24T14:31:11.459Z,66720.00
2018-07-24T14:32:11.647Z,68608.00
2018-07-24T14:33:11.766Z,66400.00
2018-07-24T14:34:12.010Z,63392.00
2018-07-24T14:35:12.149Z,63552.00
2018-07-24T14:36:12.457Z,66560.00
2018-07-24T14:37:12.592Z,65536.00
2018-07-24T14:38:12.797Z,60672.00
2018-07-24T14:39:13.046Z,59072.00
2018-07-24T14:40:13.185Z,61632.00
2018-07-24T14:41:13.332Z,62688.00
2018-07-24T14:42:13.567Z,60992.00
2018-07-24T14:43:13.754Z,59104.00
2018-07-24T14:44:13.884Z,59296.00
2018-07-24T14:45:14.106Z,58624.00
2018-07-24T14:46:14.235Z,58432.00
2018-07-24T14:47:14.427Z,58688.00
2018-07-24T14:48:14.660Z,61408.00
2018-07-24T14:49:14.831Z,62688.00
2018-07-24T14:50:15.041Z,63200.00
2018-07-24T14:51:15.186Z,61728.00
2018-07-24T14:52:15.416Z,60640.00
2018-07-24T14:53:15.559Z,60256.00
2018-07-24T14:54:15.697Z,59392.00
2018-07-24T14:55:15.978Z,45280.00
2018-07-24T14:56:16.075Z,37408.00
2018-07-24T14:57:16.384Z,9332.00
2018-07-24T14:58:16.519Z,8556.00
2018-07-24T14:59:16.661Z,8340.00
2018-07-24T15:00:16.917Z,8400.00
2018-07-24T15:01:17.078Z,16572.00
2018-07-24T15:02:17.291Z,40864.00
2018-07-24T15:03:17.477Z,10536.00
2018-07-24T15:04:17.677Z,33632.00
2018-07-24T15:05:17.936Z,10224.00
2018-07-24T15:06:18.088Z,8944.00
2018-07-24T15:07:18.326Z,8900.00
2018-07-24T15:08:18.478Z,9412.00
2018-07-24T15:09:18.630Z,9592.00
2018-07-24T15:10:18.893Z,14036.00
2018-07-24T15:11:19.056Z,10048.00
2018-07-24T15:12:19.170Z,47424.00
2018-07-24T15:13:19.430Z,58176.00
2018-07-24T15:14:19.688Z,57664.00
2018-07-24T15:15:19.902Z,54368.00
2018-07-24T15:16:19.952Z,54048.00
2018-07-24T15:17:20.229Z,50784.00
2018-07-24T15:18:20.363Z,39904.00
2018-07-24T15:19:20.492Z,55584.00
2018-07-24T15:20:20.830Z,55360.00
2018-07-24T15:21:20.871Z,52256.00
2018-07-24T15:22:21.095Z,51136.00
2018-07-24T15:23:21.373Z,54432.00
2018-07-24T15:24:21.515Z,56832.00
2018-07-24T15:25:21.707Z,55904.00
2018-07-24T15:26:21.853Z,52832.00
2018-07-24T15:27:22.124Z,50592.00
2018-07-24T15:28:22.260Z,51104.00
2018-07-24T15:29:22.487Z,51168.00
2018-07-24T15:30:22.635Z,50144.00
2018-07-24T15:31:22.712Z,47712.00
2018-07-24T15:32:23.107Z,47136.00
2018-07-24T15:33:23.275Z,50496.00